createdAt,value
2023-01-26T00:01:32.775Z,98337.00
2023-01-26T00:03:59.612Z,98342.31
2023-01-26T00:06:26.543Z,98342.03
2023-01-26T00:08:55.230Z,98334.03
2023-01-26T00:11:24.551Z,98335.41
2023-01-26T00:13:51.445Z,98325.53
2023-01-26T00:16:18.243Z,98325.06
2023-01-26T00:18:46.453Z,98321.41
2023-01-26T00:21:16.469Z,98323.56
2023-01-26T00:23:43.606Z,98315.88
2023-01-26T00:26:17.113Z,98311.63
2023-01-26T00:28:43.892Z,98308.69
2023-01-26T00:31:20.307Z,98306.63
2023-01-26T00:33:49.355Z,98312.72
2023-01-26T00:36:16.055Z,98313.00
2023-01-26T00:38:48.316Z,98314.09
2023-01-26T00:41:33.764Z,98308.00
2023-01-26T00:44:03.537Z,98300.31
2023-01-26T00:46:30.479Z,98302.16
2023-01-26T00:48:56.979Z,98308.78
2023-01-26T00:51:25.502Z,98300.31
2023-01-26T00:53:52.024Z,98300.31
2023-01-26T00:56:18.639Z,98297.03
2023-01-26T00:58:57.839Z,98296.53
2023-01-26T01:01:24.849Z,98295.75
2023-01-26T01:03:52.218Z,98289.34
2023-01-26T01:06:20.535Z,98293.88
2023-01-26T01:08:47.178Z,98285.88
2023-01-26T01:11:14.122Z,98283.22
2023-01-26T01:13:43.369Z,98287.75
2023-01-26T01:16:12.856Z,98284.91
2023-01-26T01:18:39.576Z,98288.66
2023-01-26T01:21:15.862Z,98282.06
2023-01-26T01:23:46.440Z,98282.06
2023-01-26T01:26:14.097Z,98275.44
2023-01-26T01:28:41.322Z,98275.44
2023-01-26T01:31:13.721Z,98276.50
2023-01-26T01:33:40.728Z,98274.97
2023-01-26T01:36:14.034Z,98270.41
2023-01-26T01:38:41.790Z,98277.63
2023-01-26T01:41:08.659Z,98271.19
2023-01-26T01:43:36.231Z,98272.78
2023-01-26T01:46:30.355Z,98271.50
2023-01-26T01:49:02.748Z,98276.03
2023-01-26T01:51:39.143Z,98265.69
2023-01-26T01:54:12.548Z,98272.09
2023-01-26T01:56:42.943Z,98262.50
2023-01-26T01:59:11.813Z,98261.75
2023-01-26T02:01:40.235Z,98264.41
2023-01-26T02:04:09.641Z,98259.06
2023-01-26T02:06:56.283Z,98253.75
2023-01-26T02:09:47.649Z,98254.81
2023-01-26T02:12:18.211Z,98247.94
2023-01-26T02:14:47.095Z,98250.88
2023-01-26T02:17:13.596Z,98249.03
2023-01-26T02:19:58.583Z,98244.00
2023-01-26T02:22:37.487Z,98238.69
2023-01-26T02:25:27.550Z,98241.34
2023-01-26T02:27:54.150Z,98237.56
2023-01-26T02:30:24.148Z,98229.59
2023-01-26T02:32:52.574Z,98236.19
2023-01-26T02:35:19.235Z,98229.31
2023-01-26T02:37:45.840Z,98231.47
2023-01-26T02:40:34.575Z,98233.66
2023-01-26T02:43:02.558Z,98227.34
2023-01-26T02:45:31.555Z,98227.63
2023-01-26T02:48:01.678Z,98216.19
2023-01-26T02:50:28.209Z,98216.19
2023-01-26T02:52:54.778Z,98217.25
2023-01-26T02:55:28.688Z,98221.03
2023-01-26T02:58:04.354Z,98213.53
2023-01-26T03:00:39.541Z,98218.06
2023-01-26T03:03:19.690Z,98204.25
2023-01-26T03:05:48.427Z,98208.03
2023-01-26T03:08:15.263Z,98202.69
2023-01-26T03:10:41.811Z,98200.34
2023-01-26T03:13:08.926Z,98206.75
2023-01-26T03:15:52.500Z,98201.72
2023-01-26T03:18:39.295Z,98203.56
2023-01-26T03:21:30.071Z,98200.44
2023-01-26T03:24:17.489Z,98198.84
2023-01-26T03:27:02.895Z,98197.25
2023-01-26T03:29:32.320Z,98203.38
2023-01-26T03:31:59.439Z,98199.91
2023-01-26T03:34:26.689Z,98196.78
2023-01-26T03:36:57.826Z,98194.91
2023-01-26T03:39:43.130Z,98196.78
2023-01-26T03:42:32.799Z,98201.31
2023-01-26T03:45:17.745Z,98195.19
2023-01-26T03:48:03.075Z,98189.88
2023-01-26T03:50:48.153Z,98193.34
2023-01-26T03:53:39.048Z,98186.13
2023-01-26T03:56:20.065Z,98187.72
2023-01-26T03:58:59.226Z,98182.41
2023-01-26T04:01:29.275Z,98185.84
2023-01-26T04:04:17.200Z,98182.41
2023-01-26T04:07:04.567Z,98170.16
2023-01-26T04:09:36.527Z,98175.50
2023-01-26T04:12:04.309Z,98174.41
2023-01-26T04:14:51.286Z,98174.13
2023-01-26T04:17:37.756Z,98171.16
2023-01-26T04:20:25.207Z,98165.84
2023-01-26T04:22:51.921Z,98167.72
2023-01-26T04:25:21.551Z,98163.94
2023-01-26T04:27:48.375Z,98161.28
2023-01-26T04:30:16.355Z,98155.78
2023-01-26T04:32:43.120Z,98161.13
2023-01-26T04:35:10.426Z,98156.88
2023-01-26T04:37:37.656Z,98152.63
2023-01-26T04:40:04.966Z,98149.50
2023-01-26T04:42:33.369Z,98147.59
2023-01-26T04:45:00.299Z,98149.97
2023-01-26T04:47:29.204Z,98141.22
2023-01-26T04:49:56.245Z,98129.28
2023-01-26T04:52:23.292Z,98129.56
2023-01-26T04:54:49.807Z,98125.34
2023-01-26T04:57:24.785Z,98129.88
2023-01-26T04:59:51.299Z,98132.03
2023-01-26T05:02:17.831Z,98128.59
2023-01-26T05:04:46.120Z,98133.13
2023-01-26T05:07:12.783Z,98124.06
2023-01-26T05:09:39.782Z,98129.09
2023-01-26T05:12:25.293Z,98130.19
2023-01-26T05:14:56.324Z,98124.06
2023-01-26T05:17:22.858Z,98127.00
2023-01-26T05:19:49.636Z,98124.66
2023-01-26T05:22:16.219Z,98122.78
2023-01-26T05:24:42.754Z,98124.66
2023-01-26T05:27:23.570Z,98119.63
2023-01-26T05:32:22.392Z,98119.16
2023-01-26T05:34:48.972Z,98124.78
2023-01-26T05:37:15.552Z,98134.31
2023-01-26T05:39:42.203Z,98121.81
2023-01-26T05:42:09.027Z,98136.97
2023-01-26T05:44:35.506Z,98135.09
2023-01-26T05:47:02.154Z,98132.75
2023-01-26T05:49:29.035Z,98139.06
2023-01-26T05:51:57.340Z,98135.88
2023-01-26T05:54:24.153Z,98132.44
2023-01-26T05:56:51.015Z,98141.22
2023-01-26T05:59:17.654Z,98140.44
2023-01-26T06:01:44.188Z,98144.16
2023-01-26T06:04:12.530Z,98134.59
2023-01-26T06:06:39.032Z,98134.91
2023-01-26T06:09:05.524Z,98133.31
2023-01-26T06:11:34.663Z,98133.63
2023-01-26T06:14:04.552Z,98134.44
2023-01-26T06:16:31.111Z,98136.78
2023-01-26T06:18:59.478Z,98134.91
2023-01-26T06:21:25.991Z,98124.88
2023-01-26T06:23:54.916Z,98134.44
2023-01-26T06:26:23.256Z,98125.63
2023-01-26T06:28:49.804Z,98122.19
2023-01-26T06:31:16.888Z,98122.97
2023-01-26T06:33:43.709Z,98127.22
2023-01-26T06:36:14.547Z,98125.63
2023-01-26T06:38:51.294Z,98113.16
2023-01-26T06:41:18.833Z,98114.22
2023-01-26T06:43:47.554Z,98119.53
2023-01-26T06:46:16.485Z,98121.72
2023-01-26T06:48:43.118Z,98122.50
2023-01-26T06:51:15.708Z,98123.28
2023-01-26T06:54:12.093Z,98115.31
2023-01-26T06:56:39.364Z,98129.09
2023-01-26T06:59:05.954Z,98125.63
2023-01-26T07:01:43.439Z,98119.53
2023-01-26T07:04:10.038Z,98115.31
2023-01-26T07:06:36.557Z,98124.09
2023-01-26T07:09:03.651Z,98115.00
2023-01-26T07:11:32.351Z,98118.47
2023-01-26T07:13:59.389Z,98112.34
2023-01-26T07:16:26.537Z,98113.63
2023-01-26T07:19:04.137Z,98117.09
2023-01-26T07:21:32.463Z,98115.97
2023-01-26T07:23:59.060Z,98119.94
2023-01-26T07:26:25.784Z,98116.97
2023-01-26T07:28:54.117Z,98123.88
2023-01-26T07:31:20.839Z,98121.69
2023-01-26T07:33:51.611Z,98124.66
2023-01-26T07:38:57.222Z,98127.59
2023-01-26T07:41:28.316Z,98122.28
2023-01-26T07:43:54.851Z,98120.72
2023-01-26T07:46:21.414Z,98122.00
2023-01-26T07:48:49.870Z,98120.91
2023-01-26T07:51:16.360Z,98120.31
2023-01-26T07:53:44.145Z,98129.78
2023-01-26T07:56:18.288Z,98131.34
2023-01-26T07:58:49.371Z,98120.69
2023-01-26T08:01:16.055Z,98132.91
2023-01-26T08:03:47.232Z,98127.00
2023-01-26T08:06:15.257Z,98132.22
2023-01-26T08:08:42.904Z,98133.50
2023-01-26T08:11:12.766Z,98137.72
2023-01-26T08:13:39.592Z,98131.31
2023-01-26T08:16:12.721Z,98133.59
2023-01-26T08:18:41.149Z,98144.63
2023-01-26T08:21:08.526Z,98140.25
2023-01-26T08:23:35.073Z,98138.38
2023-01-26T08:26:18.939Z,98132.66
2023-01-26T08:28:45.922Z,98142.31
2023-01-26T08:31:15.344Z,98142.63
2023-01-26T08:33:44.546Z,98142.63
2023-01-26T08:36:12.919Z,98138.59
2023-01-26T08:38:39.595Z,98141.13
2023-01-26T08:41:11.406Z,98135.00
2023-01-26T08:43:38.333Z,98137.97
2023-01-26T08:46:05.558Z,98132.19
2023-01-26T08:48:37.376Z,98135.63
2023-01-26T08:51:06.667Z,98133.63
2023-01-26T08:53:35.012Z,98133.13
2023-01-26T08:56:03.600Z,98131.13
2023-01-26T08:58:30.206Z,98133.53
2023-01-26T09:00:57.098Z,98126.13
2023-01-26T09:03:23.814Z,98133.03
2023-01-26T09:05:50.290Z,98124.75
2023-01-26T09:08:16.788Z,98127.91
2023-01-26T09:10:47.371Z,98129.44
2023-01-26T09:13:14.154Z,98131.81
2023-01-26T09:15:40.778Z,98134.19
2023-01-26T09:18:09.413Z,98140.78
2023-01-26T09:20:38.150Z,98135.44
2023-01-26T09:23:04.972Z,98130.63
2023-01-26T09:25:31.780Z,98136.44
2023-01-26T09:27:58.292Z,98135.66
2023-01-26T09:30:25.104Z,98134.88
2023-01-26T09:32:56.148Z,98144.41
2023-01-26T09:35:22.628Z,98135.34
2023-01-26T09:37:49.092Z,98143.22
2023-01-26T09:40:28.402Z,98141.66
2023-01-26T09:43:08.290Z,98153.75
2023-01-26T09:46:08.351Z,98144.56
2023-01-26T09:48:47.340Z,98153.03
2023-01-26T09:51:22.535Z,98147.41
2023-01-26T09:54:13.040Z,98145.53
2023-01-26T09:56:40.242Z,98147.00
2023-01-26T09:59:36.693Z,98143.72
2023-01-26T10:02:43.571Z,98147.81
2023-01-26T10:05:21.844Z,98138.31
2023-01-26T10:07:48.794Z,98149.28
2023-01-26T10:10:26.281Z,98140.69
2023-01-26T10:12:55.848Z,98137.22
2023-01-26T10:15:34.399Z,98134.56
2023-01-26T10:18:06.459Z,98140.22
2023-01-26T10:20:35.586Z,98135.84
2023-01-26T10:23:18.602Z,98135.22
2023-01-26T10:25:51.027Z,98137.91
2023-01-26T10:28:24.148Z,98135.69
2023-01-26T10:30:53.139Z,98131.53
2023-01-26T10:33:30.774Z,98139.84
2023-01-26T10:35:57.300Z,98128.06
2023-01-26T10:38:34.674Z,98130.41
2023-01-26T10:41:06.231Z,98130.72
2023-01-26T10:43:41.607Z,98124.63
2023-01-26T10:46:30.862Z,98123.22
2023-01-26T10:49:17.393Z,98118.66
2023-01-26T10:52:04.855Z,98121.81
2023-01-26T10:54:33.896Z,98117.75
2023-01-26T10:57:09.407Z,98113.34
2023-01-26T10:59:57.692Z,98108.50
2023-01-26T11:02:28.319Z,98103.44
2023-01-26T11:05:07.007Z,98101.59
2023-01-26T11:07:35.047Z,98103.31
2023-01-26T11:10:27.670Z,98098.19
2023-01-26T11:13:16.526Z,98093.81
2023-01-26T11:15:49.531Z,98088.00
2023-01-26T11:18:20.163Z,98091.63
2023-01-26T11:21:01.046Z,98083.50
2023-01-26T11:23:31.235Z,98084.78
2023-01-26T11:26:05.597Z,98085.09
2023-01-26T11:28:45.654Z,98083.19
2023-01-26T11:31:39.125Z,98078.00
2023-01-26T11:34:34.625Z,98081.31
2023-01-26T11:37:18.498Z,98087.13
2023-01-26T11:40:14.503Z,98079.28
2023-01-26T11:43:48.952Z,98080.22
2023-01-26T11:46:45.611Z,98080.69
2023-01-26T11:49:36.603Z,98076.56
2023-01-26T11:52:29.724Z,98074.50
2023-01-26T11:55:19.708Z,98084.50
2023-01-26T11:58:11.271Z,98063.59
2023-01-26T12:00:43.418Z,98071.66
2023-01-26T12:03:25.792Z,98068.97
2023-01-26T12:05:57.686Z,98061.22
2023-01-26T12:08:39.496Z,98067.31
2023-01-26T12:11:24.789Z,98062.34
2023-01-26T12:14:08.531Z,98059.47
2023-01-26T12:16:38.203Z,98049.44
2023-01-26T12:19:35.867Z,98048.66
2023-01-26T12:22:13.890Z,98046.31
2023-01-26T12:25:16.155Z,98038.00
2023-01-26T12:27:57.757Z,98041.50
2023-01-26T12:30:46.228Z,98036.78
2023-01-26T12:33:14.807Z,98032.06
2023-01-26T12:35:53.581Z,98045.50
2023-01-26T12:38:28.553Z,98037.16
2023-01-26T12:41:19.093Z,98033.53
2023-01-26T12:44:00.529Z,98030.03
2023-01-26T12:46:31.777Z,98032.34
2023-01-26T12:49:08.412Z,98027.50
2023-01-26T12:51:41.281Z,98023.75
2023-01-26T12:54:42.700Z,98023.38
2023-01-26T12:57:15.609Z,98023.19
2023-01-26T12:59:48.117Z,98018.91
2023-01-26T13:02:16.205Z,98022.06
2023-01-26T13:04:48.589Z,98019.50
2023-01-26T13:07:39.527Z,98017.16
2023-01-26T13:10:17.714Z,98010.75
2023-01-26T13:12:57.247Z,98015.94
2023-01-26T13:15:27.130Z,98024.53
2023-01-26T13:17:56.445Z,98016.66
2023-01-26T13:20:25.439Z,98017.75
2023-01-26T13:22:53.300Z,98017.91
2023-01-26T13:25:29.739Z,98015.75
2023-01-26T13:27:59.303Z,98008.75
2023-01-26T13:30:25.807Z,98006.00
2023-01-26T13:32:53.472Z,98012.28
2023-01-26T13:35:26.577Z,98021.50
2023-01-26T13:37:53.181Z,98016.28
2023-01-26T13:40:34.182Z,98015.50
2023-01-26T13:43:26.158Z,98016.13
2023-01-26T13:45:58.949Z,98017.09
2023-01-26T13:48:49.826Z,98020.22
2023-01-26T13:51:28.945Z,98015.97
2023-01-26T13:54:02.512Z,98015.50
2023-01-26T13:56:35.393Z,98028.03
2023-01-26T13:59:12.939Z,98024.09
2023-01-26T14:01:49.209Z,98024.88
2023-01-26T14:04:37.762Z,98027.63
2023-01-26T14:07:12.434Z,98025.78
2023-01-26T14:09:49.592Z,98019.38
2023-01-26T14:12:42.160Z,98025.66
2023-01-26T14:15:23.856Z,98010.78
2023-01-26T14:18:01.533Z,98026.88
2023-01-26T14:20:32.069Z,98023.72
2023-01-26T14:23:13.940Z,98024.81
2023-01-26T14:25:58.386Z,98029.34
2023-01-26T14:28:37.465Z,98034.94
2023-01-26T14:31:28.397Z,98034.94
2023-01-26T14:33:58.898Z,98032.41
2023-01-26T14:36:34.026Z,98030.94
2023-01-26T14:39:01.397Z,98030.47
2023-01-26T14:41:31.826Z,98034.03
2023-01-26T14:44:06.776Z,98026.34
2023-01-26T14:46:59.993Z,98034.81
2023-01-26T14:49:43.492Z,98041.50
2023-01-26T14:52:25.873Z,98035.22
2023-01-26T14:54:58.851Z,98033.16
2023-01-26T14:57:27.413Z,98037.19
2023-01-26T15:00:00.549Z,98034.53
2023-01-26T15:02:39.041Z,98031.28
2023-01-26T15:05:18.314Z,98033.44
2023-01-26T15:08:00.790Z,98040.34
2023-01-26T15:10:44.271Z,98036.09
2023-01-26T15:13:10.699Z,98036.72
2023-01-26T15:15:39.572Z,98045.47
2023-01-26T15:18:19.409Z,98046.06
2023-01-26T15:20:52.869Z,98047.44
2023-01-26T15:23:28.538Z,98047.44
2023-01-26T15:25:55.591Z,98050.91
2023-01-26T15:28:26.266Z,98051.47
2023-01-26T15:30:57.834Z,98050.22
2023-01-26T15:33:47.981Z,98057.41
2023-01-26T15:36:34.323Z,98051.59
2023-01-26T15:39:05.122Z,98051.59
2023-01-26T15:41:31.670Z,98057.81
2023-01-26T15:43:59.678Z,98057.31
2023-01-26T15:46:26.714Z,98059.97
2023-01-26T15:48:53.530Z,98058.38
2023-01-26T15:51:20.374Z,98053.06
2023-01-26T15:53:46.855Z,98058.38
2023-01-26T15:56:16.007Z,98059.75
2023-01-26T15:58:45.563Z,98061.63
2023-01-26T16:01:20.193Z,98069.13
2023-01-26T16:03:48.459Z,98076.00
2023-01-26T16:06:36.863Z,98074.25
2023-01-26T16:09:03.722Z,98075.81
2023-01-26T16:11:33.963Z,98073.16
2023-01-26T16:14:04.351Z,98066.25
2023-01-26T16:16:34.062Z,98077.97
2023-01-26T16:19:00.939Z,98069.53
2023-01-26T16:21:31.405Z,98068.75
2023-01-26T16:23:58.259Z,98066.94
2023-01-26T16:26:26.303Z,98065.97
2023-01-26T16:28:52.811Z,98068.31
2023-01-26T16:31:24.311Z,98066.47
2023-01-26T16:33:54.658Z,98066.47
2023-01-26T16:36:22.510Z,98063.59
2023-01-26T16:38:55.956Z,98061.25
2023-01-26T16:41:30.992Z,98066.84
2023-01-26T16:44:00.147Z,98066.06
2023-01-26T16:46:29.907Z,98071.97
2023-01-26T16:48:57.136Z,98072.75
2023-01-26T16:51:46.037Z,98065.84
2023-01-26T16:54:13.751Z,98071.16
2023-01-26T16:56:40.542Z,98073.81
2023-01-26T16:59:07.052Z,98072.25
2023-01-26T17:01:36.624Z,98078.38
2023-01-26T17:04:03.961Z,98072.75
2023-01-26T17:06:33.057Z,98074.63
2023-01-26T17:08:59.679Z,98071.69
2023-01-26T17:11:28.660Z,98071.97
2023-01-26T17:13:58.595Z,98077.56
2023-01-26T17:16:32.998Z,98070.69
2023-01-26T17:19:01.563Z,98076.00
2023-01-26T17:21:28.061Z,98077.06
2023-01-26T17:23:57.180Z,98077.06
2023-01-26T17:26:28.321Z,98066.75
2023-01-26T17:28:55.582Z,98069.69
2023-01-26T17:31:23.418Z,98064.88
2023-01-26T17:33:52.795Z,98075.78
2023-01-26T17:36:19.608Z,98079.25
2023-01-26T17:38:48.808Z,98074.22
2023-01-26T17:41:18.393Z,98083.28
2023-01-26T17:43:45.663Z,98073.44
2023-01-26T17:46:14.538Z,98070.78
2023-01-26T17:48:45.240Z,98075.59
2023-01-26T17:51:20.236Z,98083.06
2023-01-26T17:53:49.842Z,98071.66
2023-01-26T17:56:19.132Z,98084.66
2023-01-26T17:58:50.659Z,98084.13
2023-01-26T18:01:17.717Z,98090.56
2023-01-26T18:03:44.271Z,98077.56
2023-01-26T18:06:11.283Z,98075.97
2023-01-26T18:08:39.681Z,98085.25
2023-01-26T18:11:08.800Z,98081.47
2023-01-26T18:13:35.541Z,98084.13
2023-01-26T18:16:07.258Z,98086.78
2023-01-26T18:18:34.136Z,98087.91
2023-01-26T18:21:24.527Z,98082.06
2023-01-26T18:23:56.397Z,98086.31
2023-01-26T18:26:24.777Z,98094.28
2023-01-26T18:28:51.962Z,98082.06
2023-01-26T18:31:31.281Z,98082.06
2023-01-26T18:34:01.233Z,98085.53
2023-01-26T18:36:28.311Z,98085.03
2023-01-26T18:38:58.038Z,98090.63
2023-01-26T18:41:25.955Z,98089.06
2023-01-26T18:43:54.806Z,98087.19
2023-01-26T18:46:22.459Z,98091.72
2023-01-26T18:48:55.828Z,98084.84
2023-01-26T18:51:24.353Z,98085.91
2023-01-26T18:53:50.808Z,98077.16
2023-01-26T18:56:17.563Z,98076.34
2023-01-26T18:58:44.184Z,98070.25
2023-01-26T19:01:14.545Z,98072.63
2023-01-26T19:03:47.427Z,98070.56
2023-01-26T19:06:18.385Z,98066.31
2023-01-26T19:08:46.247Z,98066.09
2023-01-26T19:11:13.110Z,98067.22
2023-01-26T19:13:42.190Z,98071.72
2023-01-26T19:16:09.426Z,98070.94
2023-01-26T19:18:38.187Z,98067.50
2023-01-26T19:21:05.139Z,98066.69
2023-01-26T19:23:32.969Z,98070.44
2023-01-26T19:26:01.749Z,98062.75
2023-01-26T19:28:28.189Z,98058.25
2023-01-26T19:31:02.532Z,98059.03
2023-01-26T19:33:29.179Z,98054.78
2023-01-26T19:35:56.499Z,98060.09
2023-01-26T19:38:31.561Z,98064.13
2023-01-26T19:40:58.209Z,98064.34
2023-01-26T19:43:24.771Z,98065.13
2023-01-26T19:45:55.565Z,98072.28
2023-01-26T19:48:24.211Z,98067.78
2023-01-26T19:51:03.640Z,98071.81
2023-01-26T19:53:36.098Z,98067.09
2023-01-26T19:56:10.971Z,98068.66
2023-01-26T19:58:38.102Z,98062.03
2023-01-26T20:01:07.832Z,98062.94
2023-01-26T20:03:36.841Z,98055.47
2023-01-26T20:06:04.802Z,98062.34
2023-01-26T20:08:31.807Z,98060.50
2023-01-26T20:11:09.741Z,98059.69
2023-01-26T20:13:37.023Z,98064.50
2023-01-26T20:16:04.690Z,98060.28
2023-01-26T20:18:33.493Z,98061.84
2023-01-26T20:21:01.021Z,98060.28
2023-01-26T20:23:28.347Z,98062.44
2023-01-26T20:26:11.106Z,98057.13
2023-01-26T20:28:40.207Z,98058.19
2023-01-26T20:31:10.645Z,98061.94
2023-01-26T20:33:37.805Z,98065.09
2023-01-26T20:36:29.644Z,98060.84
2023-01-26T20:38:56.571Z,98066.47
2023-01-26T20:41:27.368Z,98064.59
2023-01-26T20:44:01.200Z,98070.97
2023-01-26T20:46:36.918Z,98066.47
2023-01-26T20:49:04.797Z,98064.59
2023-01-26T20:51:35.739Z,98058.97
2023-01-26T20:54:10.786Z,98057.44
2023-01-26T20:56:37.466Z,98054.25
2023-01-26T20:59:05.454Z,98052.66
2023-01-26T21:01:34.297Z,98058.78
2023-01-26T21:04:02.209Z,98057.22
2023-01-26T21:06:29.689Z,98061.44
2023-01-26T21:09:00.202Z,98051.31
2023-01-26T21:11:30.303Z,98052.91
2023-01-26T21:13:58.638Z,98051.81
2023-01-26T21:16:25.409Z,98052.91
2023-01-26T21:18:58.182Z,98047.59
2023-01-26T21:21:25.020Z,98046.81
2023-01-26T21:23:51.651Z,98044.16
2023-01-26T21:26:22.262Z,98047.06
2023-01-26T21:28:50.936Z,98038.03
2023-01-26T21:31:27.417Z,98038.31
2023-01-26T21:34:06.764Z,98034.59
2023-01-26T21:36:39.457Z,98029.88
2023-01-26T21:39:10.763Z,98038.13
2023-01-26T21:41:55.849Z,98032.81
2023-01-26T21:44:30.817Z,98028.06
2023-01-26T21:47:03.339Z,98036.34
2023-01-26T21:49:30.588Z,98028.66
2023-01-26T21:52:16.215Z,98025.53
2023-01-26T21:54:42.817Z,98025.81
2023-01-26T21:57:31.166Z,98036.72
2023-01-26T22:00:00.169Z,98025.59
2023-01-26T22:02:26.689Z,98024.00
2023-01-26T22:04:55.487Z,98028.06
2023-01-26T22:07:22.090Z,98020.66
2023-01-26T22:09:48.915Z,98024.97
2023-01-26T22:12:20.604Z,98025.25
2023-01-26T22:14:47.140Z,98025.06
2023-01-26T22:17:13.731Z,98034.09
2023-01-26T22:19:40.475Z,98031.72
2023-01-26T22:22:06.985Z,98030.16
2023-01-26T22:24:35.941Z,98034.09
2023-01-26T22:27:02.573Z,98039.41
2023-01-26T22:29:29.080Z,98027.19
2023-01-26T22:31:55.851Z,98033.59
2023-01-26T22:34:22.890Z,98034.88
2023-01-26T22:36:49.449Z,98023.78
2023-01-26T22:39:16.074Z,98032.50
2023-01-26T22:41:44.761Z,98030.97
2023-01-26T22:44:13.261Z,98029.06
2023-01-26T22:46:39.887Z,98028.00
2023-01-26T22:49:06.602Z,98028.78
2023-01-26T22:51:37.106Z,98031.72
2023-01-26T22:54:04.252Z,98027.19
2023-01-26T22:56:35.227Z,98026.44
2023-01-26T22:59:01.859Z,98033.09
2023-01-26T23:01:31.335Z,98022.00
2023-01-26T23:03:59.335Z,98024.66
2023-01-26T23:06:26.539Z,98032.91
2023-01-26T23:08:53.768Z,98029.72
2023-01-26T23:11:23.026Z,98029.94
2023-01-26T23:13:51.598Z,98027.59
2023-01-26T23:16:18.229Z,98028.66
2023-01-26T23:18:50.305Z,98022.84
2023-01-26T23:21:16.994Z,98028.94
2023-01-26T23:23:43.548Z,98021.78
2023-01-26T23:26:12.501Z,98021.28
2023-01-26T23:28:41.888Z,98018.13
2023-01-26T23:31:09.858Z,98013.09
2023-01-26T23:33:39.174Z,98010.16
2023-01-26T23:36:07.013Z,98010.16
2023-01-26T23:38:34.118Z,98002.00
2023-01-26T23:41:00.927Z,98009.16
2023-01-26T23:43:29.882Z,98006.50
2023-01-26T23:45:56.925Z,98010.25
2023-01-26T23:48:24.987Z,98001.78
2023-01-26T23:51:08.530Z,98007.09
2023-01-26T23:53:35.447Z,98004.25
2023-01-26T23:56:08.907Z,98004.94
2023-01-26T23:58:39.511Z,98002.59
